sensor_id;sensor_type;location;lat;lon;timestamp;temperature;humidity
18868;DHT22;9563;49.240;9.088;2023-07-22T04:00:14;15.00;99.90
18868;DHT22;9563;49.240;9.088;2023-07-22T04:02:41;15.00;99.90
18868;DHT22;9563;49.240;9.088;2023-07-22T04:05:09;15.10;99.90
18868;DHT22;9563;49.240;9.088;2023-07-22T04:07:36;15.00;99.90
18868;DHT22;9563;49.240;9.088;2023-07-22T04:10:03;15.10;99.90
18868;DHT22;9563;49.240;9.088;2023-07-22T04:12:30;15.10;99.90
18868;DHT22;9563;49.240;9.088;2023-07-22T04:14:57;15.20;99.90
18868;DHT22;9563;49.240;9.088;2023-07-22T04:17:26;15.20;99.90
18868;DHT22;9563;49.240;9.088;2023-07-22T04:19:53;15.20;99.90
18868;DHT22;9563;49.240;9.088;2023-07-22T04:22:20;15.20;99.90
18868;DHT22;9563;49.240;9.088;2023-07-22T04:24:47;15.20;99.90
18868;DHT22;9563;49.240;9.088;2023-07-22T04:27:14;15.20;99.90
18868;DHT22;9563;49.240;9.088;2023-07-22T04:29:41;15.20;99.90
18868;DHT22;9563;49.240;9.088;2023-07-22T04:32:08;15.20;99.90
18868;DHT22;9563;49.240;9.088;2023-07-22T04:34:37;15.20;99.90
18868;DHT22;9563;49.240;9.088;2023-07-22T04:37:04;15.20;99.90
18868;DHT22;9563;49.240;9.088;2023-07-22T04:39:52;15.30;99.90
18868;DHT22;9563;49.240;9.088;2023-07-22T04:42:22;15.30;99.90
18868;DHT22;9563;49.240;9.088;2023-07-22T04:44:49;15.30;99.90
18868;DHT22;9563;49.240;9.088;2023-07-22T04:47:15;15.30;99.90
18868;DHT22;9563;49.240;9.088;2023-07-22T04:49:44;15.30;99.90
18868;DHT22;9563;49.240;9.088;2023-07-22T04:52:11;15.30;99.90
18868;DHT22;9563;49.240;9.088;2023-07-22T04:54:38;15.30;99.90
18868;DHT22;9563;49.240;9.088;2023-07-22T04:57:05;15.30;99.90
18868;DHT22;9563;49.240;9.088;2023-07-22T04:59:32;15.30;99.90
18868;DHT22;9563;49.240;9.088;2023-07-22T05:01:59;15.30;99.90
18868;DHT22;9563;49.240;9.088;2023-07-22T05:04:26;15.30;99.90
18868;DHT22;9563;49.240;9.088;2023-07-22T05:06:54;15.30;99.90
18868;DHT22;9563;49.240;9.088;2023-07-22T05:09:21;15.40;99.90
18868;DHT22;9563;49.240;9.088;2023-07-22T05:11:48;15.40;99.90
18868;DHT22;9563;49.240;9.088;2023-07-22T05:14:15;15.40;99.90
18868;DHT22;9563;49.240;9.088;2023-07-22T05:16:42;15.40;99.90
18868;DHT22;9563;49.240;9.088;2023-07-22T05:19:08;15.50;99.90
18868;DHT22;9563;49.240;9.088;2023-07-22T05:21:35;15.50;99.90
18868;DHT22;9563;49.240;9.088;2023-07-22T05:24:04;15.50;99.90
18868;DHT22;9563;49.240;9.088;2023-07-22T05:26:31;15.50;99.90
18868;DHT22;9563;49.240;9.088;2023-07-22T05:28:58;15.50;99.90
18868;DHT22;9563;49.240;9.088;2023-07-22T05:31:25;15.60;99.90
18868;DHT22;9563;49.240;9.088;2023-07-22T05:33:51;15.50;99.90
18868;DHT22;9563;49.240;9.088;2023-07-22T05:36:18;15.60;99.90
18868;DHT22;9563;49.240;9.088;2023-07-22T05:38:47;15.70;99.90
18868;DHT22;9563;49.240;9.088;2023-07-22T05:41:15;15.70;99.90
18868;DHT22;9563;49.240;9.088;2023-07-22T05:43:42;15.70;99.90
18868;DHT22;9563;49.240;9.088;2023-07-22T05:46:09;15.80;99.90
18868;DHT22;9563;49.240;9.088;2023-07-22T05:48:36;15.80;99.90
18868;DHT22;9563;49.240;9.088;2023-07-22T05:51:03;15.90;99.90
18868;DHT22;9563;49.240;9.088;2023-07-22T05:53:30;15.90;99.90
18868;DHT22;9563;49.240;9.088;2023-07-22T05:55:57;16.00;99.90
18868;DHT22;9563;49.240;9.088;2023-07-22T05:58:25;16.00;99.90
18868;DHT22;9563;49.240;9.088;2023-07-22T06:00:53;16.00;99.90
18868;DHT22;9563;49.240;9.088;2023-07-22T06:03:20;16.10;99.90
18868;DHT22;9563;49.240;9.088;2023-07-22T06:05:47;16.10;99.90
18868;DHT22;9563;49.240;9.088;2023-07-22T06:08:14;16.10;99.90
18868;DHT22;9563;49.240;9.088;2023-07-22T06:10:41;16.20;99.90
18868;DHT22;9563;49.240;9.088;2023-07-22T06:13:08;16.20;99.90
18868;DHT22;9563;49.240;9.088;2023-07-22T06:15:37;16.30;99.90
18868;DHT22;9563;49.240;9.088;2023-07-22T06:18:04;16.40;99.90
18868;DHT22;9563;49.240;9.088;2023-07-22T06:20:34;16.40;99.90
18868;DHT22;9563;49.240;9.088;2023-07-22T06:23:01;16.50;99.90
18868;DHT22;9563;49.240;9.088;2023-07-22T06:25:28;16.50;99.90
18868;DHT22;9563;49.240;9.088;2023-07-22T06:27:55;16.50;99.90
18868;DHT22;9563;49.240;9.088;2023-07-22T06:30:22;16.50;99.90
18868;DHT22;9563;49.240;9.088;2023-07-22T06:32:50;16.70;99.90
18868;DHT22;9563;49.240;9.088;2023-07-22T06:35:17;16.80;99.90
18868;DHT22;9563;49.240;9.088;2023-07-22T06:37:44;16.80;99.90
18868;DHT22;9563;49.240;9.088;2023-07-22T06:40:11;16.80;99.90
18868;DHT22;9563;49.240;9.088;2023-07-22T06:42:38;16.90;99.90
18868;DHT22;9563;49.240;9.088;2023-07-22T06:45:06;16.80;99.90
18868;DHT22;9563;49.240;9.088;2023-07-22T06:47:33;16.90;99.90
18868;DHT22;9563;49.240;9.088;2023-07-22T06:50:01;17.00;99.90
18868;DHT22;9563;49.240;9.088;2023-07-22T06:52:29;17.00;99.90
18868;DHT22;9563;49.240;9.088;2023-07-22T06:54:56;17.10;99.90
18868;DHT22;9563;49.240;9.088;2023-07-22T06:57:23;17.20;99.90
18868;DHT22;9563;49.240;9.088;2023-07-22T06:59:52;17.20;99.90
18868;DHT22;9563;49.240;9.088;2023-07-22T07:02:19;17.30;99.90
18868;DHT22;9563;49.240;9.088;2023-07-22T07:04:47;17.30;99.90
18868;DHT22;9563;49.240;9.088;2023-07-22T07:07:15;17.30;99.90
18868;DHT22;9563;49.240;9.088;2023-07-22T07:09:42;17.50;99.90
18868;DHT22;9563;49.240;9.088;2023-07-22T07:12:09;17.60;99.90
18868;DHT22;9563;49.240;9.088;2023-07-22T07:14:36;17.70;99.90
18868;DHT22;9563;49.240;9.088;2023-07-22T07:17:03;17.80;99.90
18868;DHT22;9563;49.240;9.088;2023-07-22T07:19:30;17.90;99.90
18868;DHT22;9563;49.240;9.088;2023-07-22T07:21:57;18.10;99.90
18868;DHT22;9563;49.240;9.088;2023-07-22T07:24:26;18.20;99.90
18868;DHT22;9563;49.240;9.088;2023-07-22T07:26:53;18.40;99.90
18868;DHT22;9563;49.240;9.088;2023-07-22T07:29:20;18.50;99.90
18868;DHT22;9563;49.240;9.088;2023-07-22T07:31:47;18.70;99.90
18868;DHT22;9563;49.240;9.088;2023-07-22T07:34:14;18.80;99.90
18868;DHT22;9563;49.240;9.088;2023-07-22T07:36:41;18.90;99.90
18868;DHT22;9563;49.240;9.088;2023-07-22T07:39:07;18.90;99.90
18868;DHT22;9563;49.240;9.088;2023-07-22T07:41:36;19.10;99.90
18868;DHT22;9563;49.240;9.088;2023-07-22T07:44:03;19.20;99.90
18868;DHT22;9563;49.240;9.088;2023-07-22T07:46:33;19.40;99.90
18868;DHT22;9563;49.240;9.088;2023-07-22T07:49:01;19.40;99.90
18868;DHT22;9563;49.240;9.088;2023-07-22T07:51:29;19.50;99.90
18868;DHT22;9563;49.240;9.088;2023-07-22T07:53:58;19.80;99.90
18868;DHT22;9563;49.240;9.088;2023-07-22T07:56:25;20.00;99.90
18868;DHT22;9563;49.240;9.088;2023-07-22T07:58:54;20.20;99.90
18868;DHT22;9563;49.240;9.088;2023-07-22T08:01:21;20.40;99.90
18868;DHT22;9563;49.240;9.088;2023-07-22T08:03:48;20.50;99.90
18868;DHT22;9563;49.240;9.088;2023-07-22T08:06:15;20.70;99.90
18868;DHT22;9563;49.240;9.088;2023-07-22T08:08:42;20.90;99.90
18868;DHT22;9563;49.240;9.088;2023-07-22T08:11:10;21.00;99.90
18868;DHT22;9563;49.240;9.088;2023-07-22T08:13:38;21.30;99.90
18868;DHT22;9563;49.240;9.088;2023-07-22T08:16:08;21.60;99.90
18868;DHT22;9563;49.240;9.088;2023-07-22T08:18:36;21.90;99.90
18868;DHT22;9563;49.240;9.088;2023-07-22T08:21:05;22.00;99.90
18868;DHT22;9563;49.240;9.088;2023-07-22T08:23:32;22.00;99.90
18868;DHT22;9563;49.240;9.088;2023-07-22T08:25:59;22.10;99.90
18868;DHT22;9563;49.240;9.088;2023-07-22T08:28:26;22.00;99.90
18868;DHT22;9563;49.240;9.088;2023-07-22T08:30:54;22.10;99.90
18868;DHT22;9563;49.240;9.088;2023-07-22T08:33:24;22.20;99.90
18868;DHT22;9563;49.240;9.088;2023-07-22T08:35:51;22.60;99.90
18868;DHT22;9563;49.240;9.088;2023-07-22T08:38:18;22.80;99.90
18868;DHT22;9563;49.240;9.088;2023-07-22T08:40:48;23.10;99.90
18868;DHT22;9563;49.240;9.088;2023-07-22T08:43:15;23.40;99.90
18868;DHT22;9563;49.240;9.088;2023-07-22T08:45:44;23.90;99.90
18868;DHT22;9563;49.240;9.088;2023-07-22T08:48:16;23.40;99.90
18868;DHT22;9563;49.240;9.088;2023-07-22T08:50:49;23.10;99.90
18868;DHT22;9563;49.240;9.088;2023-07-22T08:53:17;22.60;99.90
18868;DHT22;9563;49.240;9.088;2023-07-22T08:55:45;22.30;99.90
18868;DHT22;9563;49.240;9.088;2023-07-22T08:58:13;22.20;99.90
18868;DHT22;9563;49.240;9.088;2023-07-22T09:00:40;22.50;99.90
18868;DHT22;9563;49.240;9.088;2023-07-22T09:03:08;22.60;99.90
18868;DHT22;9563;49.240;9.088;2023-07-22T09:05:36;22.70;99.90
18868;DHT22;9563;49.240;9.088;2023-07-22T09:08:07;22.60;99.90
18868;DHT22;9563;49.240;9.088;2023-07-22T09:10:34;22.80;99.90
18868;DHT22;9563;49.240;9.088;2023-07-22T09:13:03;22.80;99.90
18868;DHT22;9563;49.240;9.088;2023-07-22T09:15:32;23.10;99.90
18868;DHT22;9563;49.240;9.088;2023-07-22T09:18:01;23.20;99.90
18868;DHT22;9563;49.240;9.088;2023-07-22T09:20:28;23.00;99.90
18868;DHT22;9563;49.240;9.088;2023-07-22T09:22:55;23.30;99.90
18868;DHT22;9563;49.240;9.088;2023-07-22T09:25:25;23.40;99.90
18868;DHT22;9563;49.240;9.088;2023-07-22T09:27:53;23.50;99.90
18868;DHT22;9563;49.240;9.088;2023-07-22T09:30:22;23.80;99.90
18868;DHT22;9563;49.240;9.088;2023-07-22T09:32:49;23.80;99.90
18868;DHT22;9563;49.240;9.088;2023-07-22T09:35:16;23.90;99.90
18868;DHT22;9563;49.240;9.088;2023-07-22T09:37:43;24.20;99.90
18868;DHT22;9563;49.240;9.088;2023-07-22T09:40:14;24.20;99.90
18868;DHT22;9563;49.240;9.088;2023-07-22T09:42:48;24.20;99.90
18868;DHT22;9563;49.240;9.088;2023-07-22T09:45:15;24.30;99.90
18868;DHT22;9563;49.240;9.088;2023-07-22T09:47:45;24.00;99.90
18868;DHT22;9563;49.240;9.088;2023-07-22T09:50:15;23.90;99.90
18868;DHT22;9563;49.240;9.088;2023-07-22T09:52:47;24.00;99.90
18868;DHT22;9563;49.240;9.088;2023-07-22T09:55:15;23.90;99.90
18868;DHT22;9563;49.240;9.088;2023-07-22T09:57:45;24.30;99.90
18868;DHT22;9563;49.240;9.088;2023-07-22T10:00:14;24.40;99.90
18868;DHT22;9563;49.240;9.088;2023-07-22T10:02:42;24.10;99.90
18868;DHT22;9563;49.240;9.088;2023-07-22T10:05:12;24.20;99.90
18868;DHT22;9563;49.240;9.088;2023-07-22T10:07:43;24.30;99.90
18868;DHT22;9563;49.240;9.088;2023-07-22T10:10:12;24.20;98.70
18868;DHT22;9563;49.240;9.088;2023-07-22T10:12:40;23.70;99.90
18868;DHT22;9563;49.240;9.088;2023-07-22T10:15:10;23.50;99.90
18868;DHT22;9563;49.240;9.088;2023-07-22T10:17:37;23.20;99.90
18868;DHT22;9563;49.240;9.088;2023-07-22T10:20:06;23.20;99.90
18868;DHT22;9563;49.240;9.088;2023-07-22T10:22:36;23.30;99.90
18868;DHT22;9563;49.240;9.088;2023-07-22T10:25:04;23.40;99.90
18868;DHT22;9563;49.240;9.088;2023-07-22T10:27:34;23.60;99.90
18868;DHT22;9563;49.240;9.088;2023-07-22T10:30:01;23.90;99.40
18868;DHT22;9563;49.240;9.088;2023-07-22T10:32:34;24.40;99.30
18868;DHT22;9563;49.240;9.088;2023-07-22T10:35:01;24.20;98.00
18868;DHT22;9563;49.240;9.088;2023-07-22T10:37:32;24.00;98.60
18868;DHT22;9563;49.240;9.088;2023-07-22T10:40:00;23.80;98.60
18868;DHT22;9563;49.240;9.088;2023-07-22T10:42:27;23.70;99.90
18868;DHT22;9563;49.240;9.088;2023-07-22T10:45:00;23.60;99.10
18868;DHT22;9563;49.240;9.088;2023-07-22T10:47:35;24.00;98.50
18868;DHT22;9563;49.240;9.088;2023-07-22T10:50:07;24.30;96.90
18868;DHT22;9563;49.240;9.088;2023-07-22T10:52:40;24.60;96.10
18868;DHT22;9563;49.240;9.088;2023-07-22T10:55:15;24.70;94.80
18868;DHT22;9563;49.240;9.088;2023-07-22T10:57:49;24.60;93.90
18868;DHT22;9563;49.240;9.088;2023-07-22T11:00:19;24.30;94.30
18868;DHT22;9563;49.240;9.088;2023-07-22T11:03:10;24.20;95.30
18868;DHT22;9563;49.240;9.088;2023-07-22T11:05:48;24.00;96.70
18868;DHT22;9563;49.240;9.088;2023-07-22T11:08:15;24.10;96.80
18868;DHT22;9563;49.240;9.088;2023-07-22T11:10:52;24.50;97.50
18868;DHT22;9563;49.240;9.088;2023-07-22T11:13:27;24.70;96.70
18868;DHT22;9563;49.240;9.088;2023-07-22T11:15:58;24.70;96.00
18868;DHT22;9563;49.240;9.088;2023-07-22T11:18:37;24.80;95.10
18868;DHT22;9563;49.240;9.088;2023-07-22T11:21:07;25.10;94.80
18868;DHT22;9563;49.240;9.088;2023-07-22T11:23:35;25.20;93.50
18868;DHT22;9563;49.240;9.088;2023-07-22T11:26:02;25.00;93.70
18868;DHT22;9563;49.240;9.088;2023-07-22T11:28:30;24.90;94.80
18868;DHT22;9563;49.240;9.088;2023-07-22T11:30:57;25.00;94.90
18868;DHT22;9563;49.240;9.088;2023-07-22T11:33:24;25.50;93.40
18868;DHT22;9563;49.240;9.088;2023-07-22T11:35:53;26.00;92.50
18868;DHT22;9563;49.240;9.088;2023-07-22T11:38:21;25.80;91.20
18868;DHT22;9563;49.240;9.088;2023-07-22T11:40:48;25.40;89.80
18868;DHT22;9563;49.240;9.088;2023-07-22T11:43:15;25.30;90.70
18868;DHT22;9563;49.240;9.088;2023-07-22T11:45:42;25.60;91.10
18868;DHT22;9563;49.240;9.088;2023-07-22T11:48:11;25.90;92.70
18868;DHT22;9563;49.240;9.088;2023-07-22T11:50:39;26.00;89.60
18868;DHT22;9563;49.240;9.088;2023-07-22T11:53:07;26.30;89.90
18868;DHT22;9563;49.240;9.088;2023-07-22T11:55:35;26.50;89.00
18868;DHT22;9563;49.240;9.088;2023-07-22T11:58:12;26.30;87.90
18868;DHT22;9563;49.240;9.088;2023-07-22T12:00:42;26.30;87.50
18868;DHT22;9563;49.240;9.088;2023-07-22T12:03:09;26.40;89.30
18868;DHT22;9563;49.240;9.088;2023-07-22T12:05:36;26.00;87.00
18868;DHT22;9563;49.240;9.088;2023-07-22T12:08:04;25.90;84.40
18868;DHT22;9563;49.240;9.088;2023-07-22T12:10:33;25.90;86.20
18868;DHT22;9563;49.240;9.088;2023-07-22T12:13:01;25.70;86.10
18868;DHT22;9563;49.240;9.088;2023-07-22T12:15:29;25.50;88.00
18868;DHT22;9563;49.240;9.088;2023-07-22T12:17:58;25.60;87.80
18868;DHT22;9563;49.240;9.088;2023-07-22T12:20:27;25.30;84.00
18868;DHT22;9563;49.240;9.088;2023-07-22T12:22:55;25.10;85.70
18868;DHT22;9563;49.240;9.088;2023-07-22T12:25:21;25.20;86.00
18868;DHT22;9563;49.240;9.088;2023-07-22T12:27:50;25.10;85.00
18868;DHT22;9563;49.240;9.088;2023-07-22T12:30:17;24.90;85.60
18868;DHT22;9563;49.240;9.088;2023-07-22T12:32:45;24.80;84.90
18868;DHT22;9563;49.240;9.088;2023-07-22T12:35:12;24.90;88.70
18868;DHT22;9563;49.240;9.088;2023-07-22T12:37:39;25.00;90.00
18868;DHT22;9563;49.240;9.088;2023-07-22T12:40:07;25.10;88.60
18868;DHT22;9563;49.240;9.088;2023-07-22T12:42:34;25.10;89.80
18868;DHT22;9563;49.240;9.088;2023-07-22T12:45:04;25.30;87.30
18868;DHT22;9563;49.240;9.088;2023-07-22T12:47:31;25.60;85.70
18868;DHT22;9563;49.240;9.088;2023-07-22T12:49:58;25.60;84.80
18868;DHT22;9563;49.240;9.088;2023-07-22T12:52:24;25.40;85.40
18868;DHT22;9563;49.240;9.088;2023-07-22T12:54:51;25.70;89.40
18868;DHT22;9563;49.240;9.088;2023-07-22T12:57:18;25.90;83.40
18868;DHT22;9563;49.240;9.088;2023-07-22T12:59:45;26.20;82.90
18868;DHT22;9563;49.240;9.088;2023-07-22T13:02:22;26.30;80.50
18868;DHT22;9563;49.240;9.088;2023-07-22T13:04:49;26.30;80.50
18868;DHT22;9563;49.240;9.088;2023-07-22T13:07:15;26.20;81.40
18868;DHT22;9563;49.240;9.088;2023-07-22T13:09:42;26.10;81.40
18868;DHT22;9563;49.240;9.088;2023-07-22T13:12:11;26.00;84.20
18868;DHT22;9563;49.240;9.088;2023-07-22T13:14:38;25.90;84.30
18868;DHT22;9563;49.240;9.088;2023-07-22T13:17:05;25.60;82.40
18868;DHT22;9563;49.240;9.088;2023-07-22T13:19:33;25.70;82.00
18868;DHT22;9563;49.240;9.088;2023-07-22T13:22:00;25.80;81.60
18868;DHT22;9563;49.240;9.088;2023-07-22T13:44:41;25.90;79.10
18868;DHT22;9563;49.240;9.088;2023-07-22T13:47:08;26.00;81.70
18868;DHT22;9563;49.240;9.088;2023-07-22T13:49:34;26.10;81.00
18868;DHT22;9563;49.240;9.088;2023-07-22T13:52:01;26.10;77.80
18868;DHT22;9563;49.240;9.088;2023-07-22T13:54:28;26.00;78.40
18868;DHT22;9563;49.240;9.088;2023-07-22T13:56:55;25.80;77.30
18868;DHT22;9563;49.240;9.088;2023-07-22T13:59:22;25.80;78.20
18868;DHT22;9563;49.240;9.088;2023-07-22T14:01:50;25.70;76.60
18868;DHT22;9563;49.240;9.088;2023-07-22T14:04:17;25.90;80.30
18868;DHT22;9563;49.240;9.088;2023-07-22T14:06:44;25.90;75.70
18868;DHT22;9563;49.240;9.088;2023-07-22T14:09:11;25.90;74.60
18868;DHT22;9563;49.240;9.088;2023-07-22T14:11:38;25.50;74.80
18868;DHT22;9563;49.240;9.088;2023-07-22T14:14:05;25.20;76.50
18868;DHT22;9563;49.240;9.088;2023-07-22T14:16:31;25.10;76.80
18868;DHT22;9563;49.240;9.088;2023-07-22T14:19:00;25.10;79.50
18868;DHT22;9563;49.240;9.088;2023-07-22T14:21:27;25.40;79.60
18868;DHT22;9563;49.240;9.088;2023-07-22T14:23:54;25.50;79.30
18868;DHT22;9563;49.240;9.088;2023-07-22T14:26:21;25.70;79.10
18868;DHT22;9563;49.240;9.088;2023-07-22T14:28:48;25.60;78.00
18868;DHT22;9563;49.240;9.088;2023-07-22T14:31:15;25.50;79.30
18868;DHT22;9563;49.240;9.088;2023-07-22T14:33:42;25.50;78.60
18868;DHT22;9563;49.240;9.088;2023-07-22T14:36:10;25.50;75.50
18868;DHT22;9563;49.240;9.088;2023-07-22T14:38:37;25.50;78.50
18868;DHT22;9563;49.240;9.088;2023-07-22T14:41:04;25.60;76.90
18868;DHT22;9563;49.240;9.088;2023-07-22T14:43:31;25.70;75.90
18868;DHT22;9563;49.240;9.088;2023-07-22T14:45:58;25.80;78.50
18868;DHT22;9563;49.240;9.088;2023-07-22T14:48:25;25.70;73.70
18868;DHT22;9563;49.240;9.088;2023-07-22T14:50:52;25.70;74.60
18868;DHT22;9563;49.240;9.088;2023-07-22T14:53:20;25.70;74.20
18868;DHT22;9563;49.240;9.088;2023-07-22T14:55:47;25.70;75.20
18868;DHT22;9563;49.240;9.088;2023-07-22T14:58:14;25.80;74.80
18868;DHT22;9563;49.240;9.088;2023-07-22T15:00:41;25.90;73.90
18868;DHT22;9563;49.240;9.088;2023-07-22T15:03:08;26.00;73.30
18868;DHT22;9563;49.240;9.088;2023-07-22T15:05:34;26.00;72.90
18868;DHT22;9563;49.240;9.088;2023-07-22T15:08:01;25.90;71.90
18868;DHT22;9563;49.240;9.088;2023-07-22T15:10:30;25.70;72.70
18868;DHT22;9563;49.240;9.088;2023-07-22T15:12:56;25.40;73.60
18868;DHT22;9563;49.240;9.088;2023-07-22T15:15:23;25.50;73.00
18868;DHT22;9563;49.240;9.088;2023-07-22T15:17:50;25.60;73.00
18868;DHT22;9563;49.240;9.088;2023-07-22T15:20:17;25.70;73.90
18868;DHT22;9563;49.240;9.088;2023-07-22T15:22:44;25.60;74.50
18868;DHT22;9563;49.240;9.088;2023-07-22T15:25:11;25.40;74.20
18868;DHT22;9563;49.240;9.088;2023-07-22T15:27:39;25.40;74.60
18868;DHT22;9563;49.240;9.088;2023-07-22T15:30:10;25.40;75.20
18868;DHT22;9563;49.240;9.088;2023-07-22T15:32:37;25.40;77.70
18868;DHT22;9563;49.240;9.088;2023-07-22T15:35:04;25.60;77.90
18868;DHT22;9563;49.240;9.088;2023-07-22T15:37:31;25.70;74.40
18868;DHT22;9563;49.240;9.088;2023-07-22T15:39:59;25.80;75.50
18868;DHT22;9563;49.240;9.088;2023-07-22T15:42:26;25.80;73.20
18868;DHT22;9563;49.240;9.088;2023-07-22T15:44:54;25.80;73.80
18868;DHT22;9563;49.240;9.088;2023-07-22T15:47:21;25.90;73.00
18868;DHT22;9563;49.240;9.088;2023-07-22T15:49:48;26.00;74.50
18868;DHT22;9563;49.240;9.088;2023-07-22T15:52:15;26.10;75.70
18868;DHT22;9563;49.240;9.088;2023-07-22T15:54:42;26.00;72.20
18868;DHT22;9563;49.240;9.088;2023-07-22T15:57:11;26.00;74.00
18868;DHT22;9563;49.240;9.088;2023-07-22T15:59:38;26.00;73.20
18868;DHT22;9563;49.240;9.088;2023-07-22T16:02:06;26.10;72.80
18868;DHT22;9563;49.240;9.088;2023-07-22T16:04:33;26.00;72.90
18868;DHT22;9563;49.240;9.088;2023-07-22T16:07:00;25.90;74.40
18868;DHT22;9563;49.240;9.088;2023-07-22T16:09:31;25.90;72.50
18868;DHT22;9563;49.240;9.088;2023-07-22T16:11:58;25.90;72.10
18868;DHT22;9563;49.240;9.088;2023-07-22T16:14:25;25.90;72.80
18868;DHT22;9563;49.240;9.088;2023-07-22T16:16:52;25.80;72.20
18868;DHT22;9563;49.240;9.088;2023-07-22T16:19:20;25.40;72.20
18868;DHT22;9563;49.240;9.088;2023-07-22T16:21:47;25.20;73.20
18868;DHT22;9563;49.240;9.088;2023-07-22T16:24:14;25.00;74.10
18868;DHT22;9563;49.240;9.088;2023-07-22T16:26:41;25.00;74.10
18868;DHT22;9563;49.240;9.088;2023-07-22T16:29:08;25.20;75.90
18868;DHT22;9563;49.240;9.088;2023-07-22T16:31:35;25.40;75.10
18868;DHT22;9563;49.240;9.088;2023-07-22T16:34:01;25.50;73.80
18868;DHT22;9563;49.240;9.088;2023-07-22T16:36:30;25.40;74.20
18868;DHT22;9563;49.240;9.088;2023-07-22T16:38:56;25.50;75.30
18868;DHT22;9563;49.240;9.088;2023-07-22T16:41:23;25.60;74.70
18868;DHT22;9563;49.240;9.088;2023-07-22T16:43:50;25.60;72.60
18868;DHT22;9563;49.240;9.088;2023-07-22T16:46:17;25.40;72.80
18868;DHT22;9563;49.240;9.088;2023-07-22T16:48:44;25.30;72.70
18868;DHT22;9563;49.240;9.088;2023-07-22T16:51:11;25.20;71.80
18868;DHT22;9563;49.240;9.088;2023-07-22T16:53:39;25.10;71.80
18868;DHT22;9563;49.240;9.088;2023-07-22T16:56:06;24.90;71.70
18868;DHT22;9563;49.240;9.088;2023-07-22T16:58:34;24.90;71.60
18868;DHT22;9563;49.240;9.088;2023-07-22T17:01:01;24.90;73.50
18868;DHT22;9563;49.240;9.088;2023-07-22T17:03:28;24.90;72.70
18868;DHT22;9563;49.240;9.088;2023-07-22T17:05:55;24.90;72.30
18868;DHT22;9563;49.240;9.088;2023-07-22T17:08:22;24.90;73.10
18868;DHT22;9563;49.240;9.088;2023-07-22T17:10:50;24.80;73.90
18868;DHT22;9563;49.240;9.088;2023-07-22T17:13:17;24.80;73.60
18868;DHT22;9563;49.240;9.088;2023-07-22T17:15:44;24.80;74.00
18868;DHT22;9563;49.240;9.088;2023-07-22T17:18:10;24.70;73.10
18868;DHT22;9563;49.240;9.088;2023-07-22T17:20:38;24.70;74.10
18868;DHT22;9563;49.240;9.088;2023-07-22T17:23:05;24.60;74.00
18868;DHT22;9563;49.240;9.088;2023-07-22T17:25:32;24.50;74.60
18868;DHT22;9563;49.240;9.088;2023-07-22T17:28:01;24.50;75.60
18868;DHT22;9563;49.240;9.088;2023-07-22T17:30:28;24.50;77.10
18868;DHT22;9563;49.240;9.088;2023-07-22T17:32:56;24.40;75.70
18868;DHT22;9563;49.240;9.088;2023-07-22T17:35:23;24.30;75.60
18868;DHT22;9563;49.240;9.088;2023-07-22T17:37:49;24.30;76.10
18868;DHT22;9563;49.240;9.088;2023-07-22T17:40:16;24.20;76.30
18868;DHT22;9563;49.240;9.088;2023-07-22T17:42:44;24.10;76.50
18868;DHT22;9563;49.240;9.088;2023-07-22T17:45:12;24.10;76.90
18868;DHT22;9563;49.240;9.088;2023-07-22T17:47:39;24.00;76.80
18868;DHT22;9563;49.240;9.088;2023-07-22T17:50:06;24.00;77.50
18868;DHT22;9563;49.240;9.088;2023-07-22T17:52:33;24.00;77.20
18868;DHT22;9563;49.240;9.088;2023-07-22T17:55:00;23.90;77.60
18868;DHT22;9563;49.240;9.088;2023-07-22T17:57:28;23.80;78.70
18868;DHT22;9563;49.240;9.088;2023-07-22T17:59:55;23.80;78.50
18868;DHT22;9563;49.240;9.088;2023-07-22T18:02:24;23.80;78.00
18868;DHT22;9563;49.240;9.088;2023-07-22T18:04:51;23.70;78.20
18868;DHT22;9563;49.240;9.088;2023-07-22T18:07:18;23.70;79.40
18868;DHT22;9563;49.240;9.088;2023-07-22T18:09:46;23.60;79.20
18868;DHT22;9563;49.240;9.088;2023-07-22T18:12:13;23.60;79.80
18868;DHT22;9563;49.240;9.088;2023-07-22T18:14:40;23.50;78.90
18868;DHT22;9563;49.240;9.088;2023-07-22T18:17:07;23.50;79.00
18868;DHT22;9563;49.240;9.088;2023-07-22T18:19:35;23.50;80.40
18868;DHT22;9563;49.240;9.088;2023-07-22T18:22:02;23.40;79.60
18868;DHT22;9563;49.240;9.088;2023-07-22T18:24:29;23.30;81.00
18868;DHT22;9563;49.240;9.088;2023-07-22T18:26:56;23.30;80.80
18868;DHT22;9563;49.240;9.088;2023-07-22T18:29:23;23.30;81.30
18868;DHT22;9563;49.240;9.088;2023-07-22T18:31:50;23.20;82.10
18868;DHT22;9563;49.240;9.088;2023-07-22T18:34:17;23.10;82.50
18868;DHT22;9563;49.240;9.088;2023-07-22T18:36:48;23.10;83.20
18868;DHT22;9563;49.240;9.088;2023-07-22T18:39:15;23.00;83.50
18868;DHT22;9563;49.240;9.088;2023-07-22T18:41:42;22.90;83.80
18868;DHT22;9563;49.240;9.088;2023-07-22T18:44:09;22.90;84.10
18868;DHT22;9563;49.240;9.088;2023-07-22T18:46:37;22.80;84.60
18868;DHT22;9563;49.240;9.088;2023-07-22T18:49:04;22.70;85.10
18868;DHT22;9563;49.240;9.088;2023-07-22T18:51:31;22.60;85.10
18868;DHT22;9563;49.240;9.088;2023-07-22T18:53:59;22.50;85.60
18868;DHT22;9563;49.240;9.088;2023-07-22T18:56:26;22.40;86.20
18868;DHT22;9563;49.240;9.088;2023-07-22T18:58:53;22.40;86.80
18868;DHT22;9563;49.240;9.088;2023-07-22T19:01:21;22.30;87.60
18868;DHT22;9563;49.240;9.088;2023-07-22T19:03:48;22.20;89.40
18868;DHT22;9563;49.240;9.088;2023-07-22T19:06:15;22.20;90.90
18868;DHT22;9563;49.240;9.088;2023-07-22T19:08:42;22.10;91.70
18868;DHT22;9563;49.240;9.088;2023-07-22T19:11:11;22.00;92.90
18868;DHT22;9563;49.240;9.088;2023-07-22T19:13:37;21.90;93.10
18868;DHT22;9563;49.240;9.088;2023-07-22T19:16:05;21.80;91.80
18868;DHT22;9563;49.240;9.088;2023-07-22T19:18:32;21.70;93.10
18868;DHT22;9563;49.240;9.088;2023-07-22T19:20:59;21.60;93.70
18868;DHT22;9563;49.240;9.088;2023-07-22T19:23:27;21.50;95.10
18868;DHT22;9563;49.240;9.088;2023-07-22T19:25:54;21.40;96.50
18868;DHT22;9563;49.240;9.088;2023-07-22T19:28:23;21.30;97.70
18868;DHT22;9563;49.240;9.088;2023-07-22T19:30:51;21.30;98.70
18868;DHT22;9563;49.240;9.088;2023-07-22T19:33:20;21.10;99.90
18868;DHT22;9563;49.240;9.088;2023-07-22T19:35:47;21.00;99.90
18868;DHT22;9563;49.240;9.088;2023-07-22T19:38:24;20.80;99.90
18868;DHT22;9563;49.240;9.088;2023-07-22T19:40:51;20.70;99.90
18868;DHT22;9563;49.240;9.088;2023-07-22T19:43:18;20.60;99.90
18868;DHT22;9563;49.240;9.088;2023-07-22T19:45:47;20.50;99.90
18868;DHT22;9563;49.240;9.088;2023-07-22T19:48:14;20.50;99.90
18868;DHT22;9563;49.240;9.088;2023-07-22T19:50:40;20.50;99.90
18868;DHT22;9563;49.240;9.088;2023-07-22T19:53:09;20.40;99.90
18868;DHT22;9563;49.240;9.088;2023-07-22T19:55:36;20.40;99.90
18868;DHT22;9563;49.240;9.088;2023-07-22T19:58:03;20.30;99.90
18868;DHT22;9563;49.240;9.088;2023-07-22T20:00:30;20.30;99.90
18868;DHT22;9563;49.240;9.088;2023-07-22T20:02:58;20.10;99.90
18868;DHT22;9563;49.240;9.088;2023-07-22T20:05:25;20.00;99.90
18868;DHT22;9563;49.240;9.088;2023-07-22T20:07:52;19.80;99.90